Terminal Aerodrome Forecast
Issued by NWS Central Illinois

Home | Current Version | Previous Version | Text Only | Print | Product List | Glossary On
Versions: 1 2 3 4 5 6 7 8 9 10 11 12 13 14 15
000
FTUS43 KILX 201740
TAFPIA
TAF
KPIA 201740Z 2018/2118 VRB05KT P6SM VCSH SCT050 BKN120
      TEMPO 2018/2019 BKN050
     FM201900 VRB05KT P6SM VCTS SCT050CB BKN110
      TEMPO 2019/2022 5SM TSRA BR BKN045CB
     FM202200 14004KT P6SM SCT050 BKN120
     FM210500 14004KT P6SM VCTS BKN050CB
     FM210800 17004KT 6SM BR SCT045 BKN090
     FM211400 21006KT P6SM VCTS SCT040CB BKN100=

USA.gov is the U.S. government's official web portal to all federal, state and local government web resources and services.